createdAt,value
2022-11-02T00:00:34.868Z,9.45
2022-11-02T00:03:34.348Z,9.44
2022-11-02T00:06:25.242Z,9.41
2022-11-02T00:09:15.548Z,9.39
2022-11-02T00:12:05.872Z,9.37
2022-11-02T00:14:55.922Z,9.37
2022-11-02T00:17:46.822Z,9.33
2022-11-02T00:20:37.682Z,9.33
2022-11-02T00:23:27.714Z,9.32
2022-11-02T00:26:18.724Z,9.31
2022-11-02T00:29:10.142Z,9.30
2022-11-02T00:32:00.535Z,9.30
2022-11-02T00:34:51.543Z,9.29
2022-11-02T00:37:41.320Z,9.30
2022-11-02T00:40:31.966Z,9.31
2022-11-02T00:43:22.313Z,9.31
2022-11-02T00:46:13.523Z,9.31
2022-11-02T00:49:04.531Z,9.31
2022-11-02T00:51:56.769Z,9.32
2022-11-02T00:54:47.367Z,9.34
2022-11-02T00:57:38.782Z,9.35
2022-11-02T01:00:30.405Z,9.35
2022-11-02T01:03:20.801Z,9.36
2022-11-02T01:06:13.354Z,9.36
2022-11-02T01:09:03.926Z,9.36
2022-11-02T01:11:55.049Z,9.36
2022-11-02T01:14:47.696Z,9.34
2022-11-02T01:17:38.291Z,9.36
2022-11-02T01:20:28.481Z,9.36
2022-11-02T01:23:19.121Z,9.36
2022-11-02T01:26:10.291Z,9.37
2022-11-02T01:29:00.683Z,9.35
2022-11-02T01:31:52.916Z,9.36
2022-11-02T01:34:43.707Z,9.36
2022-11-02T01:37:34.141Z,9.36
2022-11-02T01:40:24.993Z,9.36
2022-11-02T01:43:25.253Z,9.35
2022-11-02T01:46:21.973Z,9.34
2022-11-02T01:49:13.507Z,9.33
2022-11-02T01:52:07.825Z,9.32
2022-11-02T01:55:00.601Z,9.32
2022-11-02T01:57:54.570Z,9.31
2022-11-02T02:00:45.245Z,9.32
2022-11-02T02:03:37.176Z,9.31
2022-11-02T02:06:27.745Z,9.32
2022-11-02T02:09:19.606Z,9.32
2022-11-02T02:12:10.218Z,9.36
2022-11-02T02:15:02.813Z,9.38
2022-11-02T02:17:55.874Z,9.38
2022-11-02T02:21:05.512Z,9.39
2022-11-02T02:27:34.743Z,9.43
2022-11-02T02:30:25.025Z,9.45
2022-11-02T02:34:00.476Z,9.48
2022-11-02T02:37:01.312Z,9.51
2022-11-02T02:39:54.066Z,9.50
2022-11-02T02:42:46.812Z,9.54
2022-11-02T02:45:39.702Z,9.54
2022-11-02T02:48:31.175Z,9.56
2022-11-02T02:51:23.608Z,9.58
2022-11-02T02:54:15.719Z,9.58
2022-11-02T02:57:09.320Z,9.56
2022-11-02T02:59:59.408Z,9.58
2022-11-02T03:03:01.502Z,9.58
2022-11-02T03:06:03.068Z,9.57
2022-11-02T03:08:58.540Z,9.56
2022-11-02T03:11:52.515Z,9.57
2022-11-02T03:14:49.193Z,9.57
2022-11-02T03:17:46.977Z,9.57
2022-11-02T03:20:45.513Z,9.56
2022-11-02T03:23:39.626Z,9.56
2022-11-02T03:26:32.823Z,9.56
2022-11-02T03:29:26.311Z,9.56
2022-11-02T03:32:21.860Z,9.56
2022-11-02T03:35:16.491Z,9.55
2022-11-02T03:38:09.182Z,9.54
2022-11-02T03:41:01.420Z,9.50
2022-11-02T03:44:01.538Z,9.47
2022-11-02T03:46:51.765Z,9.45
2022-11-02T03:49:43.530Z,9.41
2022-11-02T03:52:34.956Z,9.38
2022-11-02T03:55:28.123Z,9.35
2022-11-02T03:58:18.406Z,9.33
2022-11-02T04:01:09.879Z,9.29
2022-11-02T04:04:00.829Z,9.28
2022-11-02T04:06:51.426Z,9.26
2022-11-02T04:09:42.355Z,9.24
2022-11-02T04:12:50.439Z,9.23
2022-11-02T04:15:41.040Z,9.21
2022-11-02T04:18:48.430Z,9.20
2022-11-02T04:21:40.053Z,9.18
2022-11-02T04:24:49.288Z,9.19
2022-11-02T04:27:40.195Z,9.19
2022-11-02T04:30:30.891Z,9.18
2022-11-02T04:33:37.342Z,9.19
2022-11-02T04:36:36.544Z,9.16
2022-11-02T04:39:26.646Z,9.16
2022-11-02T04:42:17.039Z,9.16
2022-11-02T04:45:18.230Z,9.16
2022-11-02T04:48:10.379Z,9.14
2022-11-02T04:51:02.631Z,9.16
2022-11-02T04:53:54.420Z,9.15
2022-11-02T04:56:44.571Z,9.14
2022-11-02T04:59:35.376Z,9.14
2022-11-02T05:02:26.680Z,9.14
2022-11-02T05:05:18.420Z,9.10
2022-11-02T05:08:10.031Z,9.10
2022-11-02T05:11:00.833Z,9.10
2022-11-02T05:13:52.461Z,9.09
2022-11-02T05:16:42.443Z,9.08
2022-11-02T05:19:33.541Z,9.08
2022-11-02T05:22:24.659Z,9.07
2022-11-02T05:25:16.281Z,9.03
2022-11-02T05:28:07.087Z,9.02
2022-11-02T05:30:59.733Z,9.01
2022-11-02T05:33:50.744Z,9.01
2022-11-02T05:36:44.206Z,9.01
2022-11-02T05:39:34.392Z,9.00
2022-11-02T05:42:26.028Z,8.99
2022-11-02T05:45:20.506Z,8.99
2022-11-02T05:48:13.764Z,9.00
2022-11-02T05:51:04.775Z,9.02
2022-11-02T05:53:55.981Z,9.03
2022-11-02T05:56:46.788Z,9.06
2022-11-02T05:59:36.974Z,9.08
2022-11-02T06:02:26.956Z,9.11
2022-11-02T06:05:17.184Z,9.14
2022-11-02T06:08:07.947Z,9.15
2022-11-02T06:10:58.138Z,9.20
2022-11-02T06:13:50.990Z,9.22
2022-11-02T06:16:41.791Z,9.27
2022-11-02T06:19:31.775Z,9.33
2022-11-02T06:22:21.961Z,9.39
2022-11-02T06:25:13.173Z,9.45
2022-11-02T06:28:04.083Z,9.51
2022-11-02T06:30:54.576Z,9.58
2022-11-02T06:33:47.022Z,9.66
2022-11-02T06:36:37.628Z,9.75
2022-11-02T06:39:28.839Z,9.83
2022-11-02T06:42:19.014Z,9.92
2022-11-02T06:45:10.119Z,10.02
2022-11-02T06:48:00.213Z,10.12
2022-11-02T06:50:50.602Z,10.23
2022-11-02T06:53:40.996Z,10.35
2022-11-02T06:56:31.388Z,10.49
2022-11-02T06:59:21.373Z,10.63
2022-11-02T07:02:11.563Z,10.80
2022-11-02T07:05:02.771Z,10.99
2022-11-02T07:07:56.235Z,11.19
2022-11-02T07:10:47.041Z,11.39
2022-11-02T07:13:38.049Z,11.59
2022-11-02T07:16:28.048Z,11.80
2022-11-02T07:19:19.244Z,12.03
2022-11-02T07:22:10.868Z,12.28
2022-11-02T07:25:02.693Z,12.51
2022-11-02T07:27:53.113Z,12.74
2022-11-02T07:30:44.324Z,12.97
2022-11-02T07:33:34.287Z,13.20
2022-11-02T07:36:24.073Z,13.41
2022-11-02T07:39:14.044Z,13.61
2022-11-02T07:42:07.315Z,13.84
2022-11-02T07:44:59.132Z,14.06
2022-11-02T07:47:50.235Z,14.28
2022-11-02T07:50:42.170Z,14.52
2022-11-02T07:53:31.951Z,14.74
2022-11-02T07:56:22.190Z,14.96
2022-11-02T07:59:13.623Z,15.15
2022-11-02T08:02:03.450Z,15.36
2022-11-02T08:04:53.319Z,15.56
2022-11-02T08:07:44.533Z,15.76
2022-11-02T08:10:39.094Z,15.94
2022-11-02T08:13:32.831Z,16.15
2022-11-02T08:16:23.294Z,16.34
2022-11-02T08:19:13.480Z,16.51
2022-11-02T08:22:04.077Z,16.71
2022-11-02T08:24:54.533Z,16.91
2022-11-02T08:27:45.889Z,17.10
2022-11-02T08:30:36.953Z,17.27
2022-11-02T08:33:27.288Z,17.47
2022-11-02T08:36:17.484Z,17.68
2022-11-02T08:39:07.462Z,17.85
2022-11-02T08:41:58.060Z,18.05
2022-11-02T08:44:48.048Z,18.25
2022-11-02T08:47:41.408Z,18.43
2022-11-02T08:50:31.288Z,18.58
2022-11-02T08:53:22.296Z,18.75
2022-11-02T08:56:12.486Z,18.91
2022-11-02T08:59:03.099Z,19.08
2022-11-02T09:01:55.016Z,19.24
2022-11-02T09:04:45.509Z,19.40
2022-11-02T09:07:36.520Z,19.56
2022-11-02T09:10:27.529Z,19.73
2022-11-02T09:13:21.253Z,19.89
2022-11-02T09:16:11.597Z,20.05
2022-11-02T09:19:02.601Z,20.22
2022-11-02T09:21:52.788Z,20.37
2022-11-02T09:24:43.795Z,20.53
2022-11-02T09:27:34.023Z,20.70
2022-11-02T09:30:25.606Z,20.83
2022-11-02T09:33:16.203Z,20.99
2022-11-02T09:36:07.915Z,21.15
2022-11-02T09:38:59.655Z,21.30
2022-11-02T09:41:53.820Z,21.44
2022-11-02T09:44:48.742Z,21.58
2022-11-02T09:48:15.280Z,21.72
2022-11-02T09:50:59.248Z,21.86
2022-11-02T09:53:57.035Z,22.00
2022-11-02T09:56:49.531Z,22.12
2022-11-02T09:59:42.585Z,22.24
2022-11-02T10:02:42.838Z,22.37
2022-11-02T10:05:41.134Z,22.47
2022-11-02T10:08:37.477Z,22.60
2022-11-02T10:14:33.066Z,22.83
2022-11-02T10:17:26.516Z,22.92
2022-11-02T10:20:23.993Z,23.03
2022-11-02T10:23:18.888Z,23.13
2022-11-02T10:26:14.592Z,23.24
2022-11-02T10:29:13.578Z,23.34
2022-11-02T10:32:06.138Z,23.44
2022-11-02T10:34:59.209Z,23.55
2022-11-02T10:38:09.362Z,23.67
2022-11-02T10:41:21.146Z,23.77
2022-11-02T10:44:18.616Z,23.88
2022-11-02T10:47:13.083Z,23.96
2022-11-02T10:50:15.268Z,24.05
2022-11-02T10:53:40.649Z,24.11
2022-11-02T10:56:24.519Z,24.20
2022-11-02T10:59:17.371Z,24.26
2022-11-02T11:02:13.712Z,24.34
2022-11-02T11:05:13.455Z,24.40
2022-11-02T11:08:04.855Z,24.49
2022-11-02T11:10:55.534Z,24.56
2022-11-02T11:20:32.457Z,24.83
2022-11-02T11:23:24.838Z,24.89
2022-11-02T11:26:27.900Z,24.96
2022-11-02T11:29:24.379Z,25.02
2022-11-02T11:32:18.023Z,25.10
2022-11-02T11:35:17.505Z,25.16
2022-11-02T11:38:10.219Z,25.21
2022-11-02T11:41:01.157Z,25.24
2022-11-02T11:43:52.058Z,25.29
2022-11-02T11:46:43.977Z,25.34
2022-11-02T11:50:02.949Z,25.38
2022-11-02T11:52:46.395Z,25.44
2022-11-02T11:55:37.395Z,25.47
2022-11-02T11:58:29.219Z,25.52
2022-11-02T12:01:21.338Z,25.56
2022-11-02T12:04:12.054Z,25.62
2022-11-02T12:07:24.664Z,25.66
2022-11-02T12:10:19.745Z,25.70
2022-11-02T12:13:15.039Z,25.73
2022-11-02T12:16:11.650Z,25.74
2022-11-02T12:19:20.204Z,25.76
2022-11-02T12:22:17.822Z,25.81
2022-11-02T12:25:15.369Z,25.85
2022-11-02T12:28:15.120Z,25.86
2022-11-02T12:31:12.944Z,25.88
2022-11-02T12:34:17.166Z,25.92
2022-11-02T12:40:28.483Z,25.96
2022-11-02T12:43:30.123Z,25.98
2022-11-02T12:46:27.567Z,26.01
2022-11-02T12:49:26.476Z,26.02
2022-11-02T12:52:20.859Z,26.04
2022-11-02T12:55:17.235Z,26.03
2022-11-02T12:58:09.255Z,26.04
2022-11-02T13:01:02.554Z,26.04
2022-11-02T13:03:57.664Z,26.05
2022-11-02T13:06:49.930Z,26.04
2022-11-02T13:09:41.553Z,26.06
2022-11-02T13:12:33.385Z,26.04
2022-11-02T13:15:26.234Z,26.04
2022-11-02T13:18:20.313Z,26.04
2022-11-02T13:21:12.895Z,26.03
2022-11-02T13:24:04.380Z,26.01
2022-11-02T13:26:57.442Z,25.98
2022-11-02T13:30:01.611Z,25.97
2022-11-02T13:32:57.902Z,25.94
2022-11-02T13:35:50.531Z,25.91
2022-11-02T13:38:43.378Z,25.88
2022-11-02T13:41:45.344Z,25.85
2022-11-02T13:44:49.358Z,25.77
2022-11-02T13:47:48.661Z,25.73
2022-11-02T13:50:42.736Z,25.68
2022-11-02T13:53:36.931Z,25.62
2022-11-02T13:56:28.751Z,25.55
2022-11-02T13:59:23.093Z,25.51
2022-11-02T14:02:18.299Z,25.44
2022-11-02T14:05:10.172Z,25.39
2022-11-02T14:08:03.794Z,25.33
2022-11-02T14:11:07.965Z,25.25
2022-11-02T14:14:30.505Z,25.12
2022-11-02T14:17:21.107Z,25.03
2022-11-02T14:20:33.004Z,24.93
2022-11-02T14:23:39.887Z,24.82
2022-11-02T14:26:55.363Z,24.69
2022-11-02T14:29:52.640Z,24.55
2022-11-02T14:32:56.321Z,24.43
2022-11-02T14:35:47.432Z,24.29
2022-11-02T14:38:44.505Z,24.17
2022-11-02T14:41:43.271Z,24.05
2022-11-02T14:44:50.769Z,23.92
2022-11-02T14:47:42.561Z,23.79
2022-11-02T14:50:34.219Z,23.67
2022-11-02T14:57:01.700Z,23.41
2022-11-02T14:59:55.033Z,23.25
2022-11-02T15:06:04.694Z,22.94
2022-11-02T15:08:57.408Z,22.81
2022-11-02T15:11:48.897Z,22.67
2022-11-02T15:15:05.093Z,22.54
2022-11-02T15:17:59.483Z,22.41
2022-11-02T15:21:10.542Z,22.30
2022-11-02T15:24:17.034Z,22.14
2022-11-02T15:27:09.266Z,22.03
2022-11-02T15:30:02.165Z,21.89
2022-11-02T15:33:00.392Z,21.77
2022-11-02T15:35:54.668Z,21.64
2022-11-02T15:38:47.956Z,21.49
2022-11-02T15:41:41.160Z,21.35
2022-11-02T15:44:48.474Z,21.22
2022-11-02T15:47:43.861Z,21.07
2022-11-02T15:50:41.973Z,20.95
2022-11-02T15:53:37.422Z,20.86
2022-11-02T15:56:43.037Z,20.76
2022-11-02T16:00:04.363Z,20.62
2022-11-02T16:03:01.114Z,20.52
2022-11-02T16:05:51.703Z,20.44
2022-11-02T16:08:44.253Z,20.35
2022-11-02T16:11:34.327Z,20.26
2022-11-02T16:14:25.138Z,20.15
2022-11-02T16:17:23.179Z,20.03
2022-11-02T16:20:19.396Z,19.93
2022-11-02T16:23:17.876Z,19.81
2022-11-02T16:26:09.848Z,19.71
2022-11-02T16:29:02.495Z,19.61
2022-11-02T16:31:53.297Z,19.50
2022-11-02T16:34:44.761Z,19.42
2022-11-02T16:37:36.540Z,19.31
2022-11-02T16:40:27.136Z,19.25
2022-11-02T16:43:17.944Z,19.17
2022-11-02T16:46:08.337Z,19.09
2022-11-02T16:49:16.957Z,19.02
2022-11-02T16:52:21.582Z,18.92
2022-11-02T16:55:24.982Z,18.84
2022-11-02T16:58:20.222Z,18.75
2022-11-02T17:01:20.608Z,18.68
2022-11-02T17:04:22.991Z,18.59
2022-11-02T17:07:15.310Z,18.51
2022-11-02T17:10:06.647Z,18.43
2022-11-02T17:12:58.284Z,18.35
2022-11-02T17:15:50.711Z,18.28
2022-11-02T17:18:41.309Z,18.23
2022-11-02T17:21:31.704Z,18.16
2022-11-02T17:24:32.126Z,18.10
2022-11-02T17:27:26.966Z,18.03
2022-11-02T17:30:34.321Z,17.97
2022-11-02T17:33:26.975Z,17.92
2022-11-02T17:36:18.691Z,17.86
2022-11-02T17:39:11.024Z,17.81
2022-11-02T17:42:18.732Z,17.74
2022-11-02T17:45:28.801Z,17.68
2022-11-02T17:48:19.587Z,17.64
2022-11-02T17:51:12.193Z,17.59
2022-11-02T17:54:02.625Z,17.57
2022-11-02T17:56:53.633Z,17.51
2022-11-02T17:59:44.845Z,17.45
2022-11-02T18:02:36.406Z,17.42
2022-11-02T18:05:28.142Z,17.38
2022-11-02T18:08:18.893Z,17.33
2022-11-02T18:11:10.764Z,17.27
2022-11-02T18:14:00.702Z,17.23
2022-11-02T18:16:53.353Z,17.18
2022-11-02T18:19:43.949Z,17.13
2022-11-02T18:22:34.133Z,17.07
2022-11-02T18:25:24.395Z,17.01
2022-11-02T18:28:14.784Z,16.96
2022-11-02T18:31:06.543Z,16.88
2022-11-02T18:33:58.692Z,16.82
2022-11-02T18:36:49.582Z,16.76
2022-11-02T18:39:39.975Z,16.70
2022-11-02T18:42:30.425Z,16.63
2022-11-02T18:45:21.282Z,16.55
2022-11-02T18:48:13.597Z,16.50
2022-11-02T18:51:05.926Z,16.42
2022-11-02T18:53:56.859Z,16.35
2022-11-02T18:56:47.255Z,16.28
2022-11-02T18:59:38.877Z,16.21
2022-11-02T19:02:29.784Z,16.14
2022-11-02T19:05:37.684Z,16.07
2022-11-02T19:08:45.484Z,15.98
2022-11-02T19:11:37.106Z,15.92
2022-11-02T19:14:28.792Z,15.83
2022-11-02T19:17:19.368Z,15.76
2022-11-02T19:20:11.460Z,15.68
2022-11-02T19:23:01.388Z,15.62
2022-11-02T19:25:54.403Z,15.55
2022-11-02T19:28:44.791Z,15.48
2022-11-02T19:31:35.001Z,15.42
2022-11-02T19:34:25.390Z,15.36
2022-11-02T19:37:15.971Z,15.28
2022-11-02T19:40:07.391Z,15.21
2022-11-02T19:42:57.784Z,15.17
2022-11-02T19:45:48.173Z,15.10
2022-11-02T19:48:38.568Z,15.05
2022-11-02T19:51:29.578Z,14.99
2022-11-02T19:54:20.997Z,14.95
2022-11-02T19:57:10.837Z,14.91
2022-11-02T20:00:01.171Z,14.86
2022-11-02T20:02:53.109Z,14.84
2022-11-02T20:05:47.686Z,14.79
2022-11-02T20:08:38.082Z,14.77
2022-11-02T20:11:28.919Z,14.75
2022-11-02T20:14:19.697Z,14.73
2022-11-02T20:17:30.185Z,14.71
2022-11-02T20:20:20.958Z,14.70
2022-11-02T20:23:11.821Z,14.69
2022-11-02T20:26:03.311Z,14.67
2022-11-02T20:28:53.791Z,14.66
2022-11-02T20:31:44.438Z,14.64
2022-11-02T20:34:34.969Z,14.62
2022-11-02T20:37:25.774Z,14.60
2022-11-02T20:40:16.370Z,14.59
2022-11-02T20:43:07.186Z,14.56
2022-11-02T20:46:31.512Z,14.53
2022-11-02T20:49:29.056Z,14.50
2022-11-02T20:52:25.662Z,14.49
2022-11-02T20:55:18.108Z,14.47
2022-11-02T20:58:08.909Z,14.44
2022-11-02T21:01:00.829Z,14.42
2022-11-02T21:03:51.332Z,14.41
2022-11-02T21:06:42.142Z,14.39
2022-11-02T21:09:32.532Z,14.37
2022-11-02T21:12:39.919Z,14.36
2022-11-02T21:15:31.132Z,14.33
2022-11-02T21:18:21.076Z,14.31
2022-11-02T21:21:12.942Z,14.31
2022-11-02T21:24:02.722Z,14.28
2022-11-02T21:26:53.243Z,14.27
2022-11-02T21:29:43.716Z,14.28
2022-11-02T21:32:33.899Z,14.27
2022-11-02T21:35:24.275Z,14.30
2022-11-02T21:38:14.689Z,14.35
2022-11-02T21:41:05.907Z,14.40
2022-11-02T21:43:57.113Z,14.44
2022-11-02T21:46:47.709Z,14.49
2022-11-02T21:49:38.103Z,14.55
2022-11-02T21:52:28.292Z,14.60
2022-11-02T21:55:18.687Z,14.65
2022-11-02T21:58:09.287Z,14.70
2022-11-02T22:01:19.644Z,14.73
2022-11-02T22:04:10.758Z,14.78
2022-11-02T22:07:01.800Z,14.83
2022-11-02T22:09:52.363Z,14.87
2022-11-02T22:13:14.757Z,14.90
2022-11-02T22:16:15.834Z,14.94
2022-11-02T22:19:07.572Z,14.99
2022-11-02T22:21:57.975Z,15.04
2022-11-02T22:24:49.383Z,15.07
2022-11-02T22:27:41.007Z,15.12
2022-11-02T22:30:31.604Z,15.16
2022-11-02T22:33:21.641Z,15.20
2022-11-02T22:36:14.763Z,15.26
2022-11-02T22:39:05.913Z,15.28
2022-11-02T22:41:56.251Z,15.32
2022-11-02T22:44:46.645Z,15.36
2022-11-02T22:47:37.076Z,15.39
2022-11-02T22:50:27.925Z,15.40
2022-11-02T22:53:19.056Z,15.44
2022-11-02T22:56:13.080Z,15.47
2022-11-02T22:59:03.738Z,15.50
2022-11-02T23:01:54.028Z,15.53
2022-11-02T23:04:46.566Z,15.57
2022-11-02T23:07:36.600Z,15.58
2022-11-02T23:10:44.555Z,15.60
2022-11-02T23:13:35.506Z,15.63
2022-11-02T23:16:26.256Z,15.65
2022-11-02T23:19:29.987Z,15.67
2022-11-02T23:22:37.466Z,15.69
2022-11-02T23:25:27.653Z,15.70
2022-11-02T23:28:31.984Z,15.70
2022-11-02T23:31:51.032Z,15.70
2022-11-02T23:35:01.295Z,15.70
2022-11-02T23:37:51.689Z,15.69
2022-11-02T23:40:42.286Z,15.68
2022-11-02T23:43:32.475Z,15.67
2022-11-02T23:46:23.077Z,15.66
2022-11-02T23:49:13.469Z,15.65
2022-11-02T23:52:21.473Z,15.64
2022-11-02T23:55:32.350Z,15.62
2022-11-02T23:58:22.945Z,15.60
